createdAt,value
2022-11-07T00:00:32.514Z,11.39
2022-11-07T00:03:00.571Z,11.40
2022-11-07T00:05:28.209Z,11.40
2022-11-07T00:07:55.826Z,11.41
2022-11-07T00:10:23.530Z,11.44
2022-11-07T00:12:51.230Z,11.45
2022-11-07T00:15:19.463Z,11.47
2022-11-07T00:17:47.070Z,11.48
2022-11-07T00:20:14.649Z,11.48
2022-11-07T00:22:42.270Z,11.43
2022-11-07T00:25:10.274Z,11.40
2022-11-07T00:27:38.250Z,11.34
2022-11-07T00:30:05.872Z,11.29
2022-11-07T00:32:33.893Z,11.24
2022-11-07T00:35:01.910Z,11.20
2022-11-07T00:37:29.540Z,11.18
2022-11-07T00:39:57.193Z,11.16
2022-11-07T00:42:24.762Z,11.14
2022-11-07T00:44:52.575Z,11.11
2022-11-07T00:47:20.171Z,11.10
2022-11-07T00:49:49.183Z,11.11
2022-11-07T00:52:17.136Z,11.10
2022-11-07T00:54:45.105Z,11.11
2022-11-07T00:57:22.765Z,11.10
2022-11-07T01:00:13.699Z,11.11
2022-11-07T01:03:08.925Z,11.16
2022-11-07T01:05:35.810Z,11.24
2022-11-07T01:08:03.408Z,11.26
2022-11-07T01:10:31.365Z,11.29
2022-11-07T01:12:58.945Z,11.34
2022-11-07T01:15:27.631Z,11.38
2022-11-07T01:17:55.165Z,11.42
2022-11-07T01:20:22.732Z,11.44
2022-11-07T01:22:52.687Z,11.47
2022-11-07T01:25:20.225Z,11.50
2022-11-07T01:27:48.552Z,11.52
2022-11-07T01:30:16.081Z,11.54
2022-11-07T01:32:43.658Z,11.55
2022-11-07T01:35:12.572Z,11.58
2022-11-07T01:37:40.135Z,11.55
2022-11-07T01:40:08.059Z,11.53
2022-11-07T01:42:35.665Z,11.51
2022-11-07T01:45:03.185Z,11.48
2022-11-07T01:47:31.530Z,11.44
2022-11-07T01:49:59.161Z,11.42
2022-11-07T01:52:26.887Z,11.39
2022-11-07T01:54:54.413Z,11.35
2022-11-07T01:57:22.177Z,11.31
2022-11-07T01:59:50.215Z,11.29
2022-11-07T02:02:17.948Z,11.27
2022-11-07T02:04:46.089Z,11.24
2022-11-07T02:07:13.647Z,11.21
2022-11-07T02:09:41.260Z,11.20
2022-11-07T02:12:09.282Z,11.18
2022-11-07T02:14:36.894Z,11.18
2022-11-07T02:17:04.877Z,11.20
2022-11-07T02:19:32.838Z,11.18
2022-11-07T02:22:00.351Z,11.16
2022-11-07T02:24:27.898Z,11.12
2022-11-07T02:26:55.444Z,11.11
2022-11-07T02:29:23.375Z,11.11
2022-11-07T02:31:50.913Z,11.11
2022-11-07T02:34:18.463Z,11.09
2022-11-07T02:36:46.026Z,11.11
2022-11-07T02:39:13.578Z,11.09
2022-11-07T02:41:41.515Z,11.10
2022-11-07T02:44:09.073Z,11.09
2022-11-07T02:46:36.604Z,11.09
2022-11-07T02:49:04.640Z,11.09
2022-11-07T02:51:32.176Z,11.07
2022-11-07T02:54:00.117Z,11.09
2022-11-07T02:56:27.677Z,11.13
2022-11-07T02:58:55.197Z,11.14
2022-11-07T03:01:23.297Z,11.18
2022-11-07T03:03:51.311Z,11.22
2022-11-07T03:06:19.241Z,11.26
2022-11-07T03:08:46.765Z,11.27
2022-11-07T03:11:26.351Z,11.26
2022-11-07T03:13:55.079Z,11.25
2022-11-07T03:16:23.013Z,11.24
2022-11-07T03:18:50.611Z,11.19
2022-11-07T03:21:18.184Z,11.17
2022-11-07T03:23:45.718Z,11.20
2022-11-07T03:26:13.277Z,11.20
2022-11-07T03:28:41.213Z,11.21
2022-11-07T03:31:08.719Z,11.23
2022-11-07T03:33:36.323Z,11.25
2022-11-07T03:36:03.863Z,11.29
2022-11-07T03:38:31.378Z,11.34
2022-11-07T03:40:59.284Z,11.36
2022-11-07T03:43:26.814Z,11.36
2022-11-07T03:45:54.822Z,11.35
2022-11-07T03:48:22.388Z,11.35
2022-11-07T03:50:49.940Z,11.35
2022-11-07T03:53:23.872Z,11.37
2022-11-07T03:55:52.935Z,11.38
2022-11-07T03:58:20.476Z,11.39
2022-11-07T04:00:49.668Z,11.41
2022-11-07T04:03:17.564Z,11.41
2022-11-07T04:05:45.613Z,11.40
2022-11-07T04:08:13.128Z,11.38
2022-11-07T04:10:40.741Z,11.40
2022-11-07T04:13:25.848Z,11.41
2022-11-07T04:16:16.438Z,11.41
2022-11-07T04:18:45.063Z,11.44
2022-11-07T04:21:12.643Z,11.50
2022-11-07T04:23:40.164Z,11.50
2022-11-07T04:26:25.589Z,11.51
2022-11-07T04:28:59.681Z,11.54
2022-11-07T04:31:27.268Z,11.55
2022-11-07T04:33:54.800Z,11.57
2022-11-07T04:36:22.345Z,11.56
2022-11-07T04:38:50.268Z,11.52
2022-11-07T04:41:17.794Z,11.51
2022-11-07T04:43:45.445Z,11.50
2022-11-07T04:46:13.040Z,11.46
2022-11-07T04:48:40.554Z,11.43
2022-11-07T04:51:08.778Z,11.43
2022-11-07T04:53:36.367Z,11.43
2022-11-07T04:56:03.908Z,11.42
2022-11-07T04:58:31.445Z,11.39
2022-11-07T05:00:59.063Z,11.40
2022-11-07T05:03:27.048Z,11.39
2022-11-07T05:05:55.114Z,11.37
2022-11-07T05:08:22.696Z,11.36
2022-11-07T05:10:50.306Z,11.39
2022-11-07T05:13:18.675Z,11.41
2022-11-07T05:15:46.594Z,11.43
2022-11-07T05:18:14.134Z,11.44
2022-11-07T05:20:41.697Z,11.45
2022-11-07T05:23:16.091Z,11.44
2022-11-07T05:25:43.938Z,11.43
2022-11-07T05:28:11.908Z,11.42
2022-11-07T05:30:39.544Z,11.42
2022-11-07T05:33:07.061Z,11.39
2022-11-07T05:35:34.938Z,11.37
2022-11-07T05:38:02.504Z,11.35
2022-11-07T05:40:30.432Z,11.32
2022-11-07T05:42:59.436Z,11.29
2022-11-07T05:45:26.991Z,11.28
2022-11-07T05:47:54.550Z,11.27
2022-11-07T05:50:22.126Z,11.26
2022-11-07T05:52:50.100Z,11.24
2022-11-07T05:55:18.655Z,11.24
2022-11-07T05:57:46.589Z,11.24
2022-11-07T06:00:14.143Z,11.26
2022-11-07T06:02:41.802Z,11.28
2022-11-07T06:05:09.840Z,11.29
2022-11-07T06:07:37.458Z,11.28
2022-11-07T06:10:05.007Z,11.30
2022-11-07T06:12:32.532Z,11.31
2022-11-07T06:15:00.181Z,11.33
2022-11-07T06:17:27.712Z,11.33
2022-11-07T06:20:00.141Z,11.36
2022-11-07T06:22:27.745Z,11.40
2022-11-07T06:24:56.477Z,11.43
2022-11-07T06:27:24.060Z,11.41
2022-11-07T06:29:52.037Z,11.43
2022-11-07T06:32:21.576Z,11.42
2022-11-07T06:34:49.115Z,11.41
2022-11-07T06:37:16.729Z,11.44
2022-11-07T06:39:44.236Z,11.49
2022-11-07T06:42:12.543Z,11.50
2022-11-07T06:44:41.274Z,11.53
2022-11-07T06:47:08.812Z,11.56
2022-11-07T06:49:36.363Z,11.60
2022-11-07T06:52:03.995Z,11.66
2022-11-07T06:54:31.945Z,11.73
2022-11-07T06:56:59.527Z,11.76
2022-11-07T06:59:27.217Z,11.86
2022-11-07T07:01:54.823Z,11.91
2022-11-07T07:04:22.742Z,11.96
2022-11-07T07:06:50.750Z,11.99
2022-11-07T07:09:18.476Z,12.02
2022-11-07T07:11:46.224Z,12.05
2022-11-07T07:14:13.924Z,12.09
2022-11-07T07:16:41.450Z,12.13
2022-11-07T07:19:09.422Z,12.18
2022-11-07T07:21:38.055Z,12.21
2022-11-07T07:24:05.682Z,12.27
2022-11-07T07:26:33.524Z,12.31
2022-11-07T07:29:01.289Z,12.36
2022-11-07T07:31:29.317Z,12.40
2022-11-07T07:33:57.053Z,12.45
2022-11-07T07:36:24.895Z,12.50
2022-11-07T07:38:52.525Z,12.54
2022-11-07T07:41:20.119Z,12.56
2022-11-07T07:43:48.106Z,12.60
2022-11-07T07:46:15.823Z,12.65
2022-11-07T07:48:43.762Z,12.70
2022-11-07T07:51:11.395Z,12.75
2022-11-07T07:53:39.123Z,12.81
2022-11-07T07:56:07.936Z,12.87
2022-11-07T07:58:35.677Z,12.91
2022-11-07T08:01:03.661Z,12.94
2022-11-07T08:03:50.687Z,12.98
2022-11-07T08:06:19.637Z,13.01
2022-11-07T08:08:47.358Z,13.03
2022-11-07T08:11:15.121Z,13.07
2022-11-07T08:13:42.882Z,13.12
2022-11-07T08:16:10.794Z,13.18
2022-11-07T08:18:40.407Z,13.24
2022-11-07T08:21:09.010Z,13.30
2022-11-07T08:23:36.772Z,13.36
2022-11-07T08:26:04.808Z,13.43
2022-11-07T08:28:32.776Z,13.50
2022-11-07T08:31:01.325Z,13.55
2022-11-07T08:33:29.346Z,13.60
2022-11-07T08:35:57.368Z,13.66
2022-11-07T08:38:25.361Z,13.71
2022-11-07T08:40:53.413Z,13.75
2022-11-07T08:43:21.480Z,13.81
2022-11-07T08:45:50.796Z,13.85
2022-11-07T08:48:18.604Z,13.88
2022-11-07T08:50:46.508Z,13.89
2022-11-07T08:53:14.618Z,13.88
2022-11-07T08:55:42.734Z,13.88
2022-11-07T08:58:10.547Z,13.88
2022-11-07T09:00:38.420Z,13.88
2022-11-07T09:05:54.223Z,13.93
2022-11-07T09:08:21.961Z,13.96
2022-11-07T09:10:49.766Z,13.97
2022-11-07T09:13:18.285Z,13.99
2022-11-07T09:15:50.969Z,14.08
2022-11-07T09:18:20.055Z,14.18
2022-11-07T09:20:47.854Z,14.26
2022-11-07T09:23:16.083Z,14.33
2022-11-07T09:25:44.293Z,14.36
2022-11-07T09:28:12.027Z,14.39
2022-11-07T09:30:40.173Z,14.39
2022-11-07T09:33:08.073Z,14.37
2022-11-07T09:35:36.256Z,14.38
2022-11-07T09:38:04.078Z,14.38
2022-11-07T09:40:31.843Z,14.41
2022-11-07T09:43:00.038Z,14.40
2022-11-07T09:45:27.819Z,14.39
2022-11-07T09:47:55.643Z,14.35
2022-11-07T09:50:23.505Z,14.34
2022-11-07T09:52:51.430Z,14.32
2022-11-07T09:55:19.740Z,14.34
2022-11-07T09:57:47.781Z,14.37
2022-11-07T10:00:16.217Z,14.40
2022-11-07T10:02:44.129Z,14.40
2022-11-07T10:05:11.900Z,14.39
2022-11-07T10:07:40.320Z,14.38
2022-11-07T10:10:09.609Z,14.38
2022-11-07T10:12:41.777Z,14.40
2022-11-07T10:15:12.169Z,14.39
2022-11-07T10:17:40.270Z,14.37
2022-11-07T10:20:08.079Z,14.36
2022-11-07T10:22:36.005Z,14.33
2022-11-07T10:25:03.966Z,14.32
2022-11-07T10:27:33.024Z,14.35
2022-11-07T10:30:01.303Z,14.40
2022-11-07T10:32:29.098Z,14.44
2022-11-07T10:34:57.711Z,14.44
2022-11-07T10:37:25.779Z,14.41
2022-11-07T10:39:53.689Z,14.33
2022-11-07T10:42:21.859Z,14.14
2022-11-07T10:44:49.666Z,13.95
2022-11-07T10:47:18.128Z,13.91
2022-11-07T10:49:45.963Z,13.91
2022-11-07T10:52:13.851Z,13.94
2022-11-07T10:54:42.252Z,13.92
2022-11-07T10:57:10.098Z,13.85
2022-11-07T10:59:41.674Z,13.74
2022-11-07T11:02:09.560Z,13.64
2022-11-07T11:04:37.502Z,13.53
2022-11-07T11:07:05.647Z,13.41
2022-11-07T11:09:33.452Z,13.33
2022-11-07T11:12:01.384Z,13.27
2022-11-07T11:14:29.365Z,13.21
2022-11-07T11:16:57.330Z,13.20
2022-11-07T11:19:25.467Z,13.19
2022-11-07T11:21:53.537Z,13.20
2022-11-07T11:24:21.369Z,13.28
2022-11-07T11:26:49.323Z,13.41
2022-11-07T11:29:17.290Z,13.61
2022-11-07T11:31:45.518Z,13.72
2022-11-07T11:34:13.361Z,13.81
2022-11-07T11:36:41.304Z,13.84
2022-11-07T11:39:09.633Z,13.85
2022-11-07T11:41:37.582Z,13.93
2022-11-07T11:44:06.072Z,14.07
2022-11-07T11:46:34.007Z,14.23
2022-11-07T11:49:04.069Z,14.36
2022-11-07T11:51:32.061Z,14.42
2022-11-07T11:53:59.858Z,14.52
2022-11-07T11:56:28.522Z,14.63
2022-11-07T11:58:56.450Z,14.67
2022-11-07T12:03:57.149Z,14.81
2022-11-07T12:06:25.398Z,14.87
2022-11-07T12:08:53.611Z,14.90
2022-11-07T12:11:21.493Z,14.94
2022-11-07T12:13:51.117Z,15.02
2022-11-07T12:16:19.103Z,15.22
2022-11-07T12:18:47.158Z,15.39
2022-11-07T12:21:15.070Z,15.45
2022-11-07T12:23:43.052Z,15.47
2022-11-07T12:26:11.843Z,15.41
2022-11-07T12:28:40.258Z,15.33
2022-11-07T12:31:08.247Z,15.25
2022-11-07T12:33:36.941Z,15.17
2022-11-07T12:36:04.855Z,15.11
2022-11-07T12:38:32.678Z,15.07
2022-11-07T12:41:00.492Z,15.03
2022-11-07T12:43:28.473Z,15.02
2022-11-07T12:45:56.590Z,14.98
2022-11-07T12:48:24.777Z,14.96
2022-11-07T12:50:56.291Z,14.94
2022-11-07T12:53:24.172Z,14.96
2022-11-07T12:55:51.955Z,14.99
2022-11-07T12:58:20.243Z,15.02
2022-11-07T13:00:48.008Z,15.08
2022-11-07T13:03:16.134Z,15.17
2022-11-07T13:05:44.316Z,15.25
2022-11-07T13:08:12.115Z,15.34
2022-11-07T13:10:40.850Z,15.45
2022-11-07T13:13:09.125Z,15.59
2022-11-07T13:15:54.109Z,15.71
2022-11-07T13:18:24.857Z,15.92
2022-11-07T13:20:52.816Z,16.17
2022-11-07T13:23:20.671Z,16.29
2022-11-07T13:25:50.229Z,16.32
2022-11-07T13:28:18.289Z,16.31
2022-11-07T13:30:46.132Z,16.32
2022-11-07T13:33:14.815Z,16.30
2022-11-07T13:35:42.928Z,16.25
2022-11-07T13:38:10.709Z,16.21
2022-11-07T13:40:38.636Z,16.12
2022-11-07T13:43:06.469Z,16.06
2022-11-07T13:45:34.747Z,16.01
2022-11-07T13:48:02.609Z,15.97
2022-11-07T13:50:30.384Z,15.93
2022-11-07T13:52:58.149Z,15.92
2022-11-07T13:55:26.366Z,15.97
2022-11-07T13:57:54.148Z,16.09
2022-11-07T14:00:21.963Z,16.20
2022-11-07T14:02:51.447Z,16.26
2022-11-07T14:05:19.318Z,16.20
2022-11-07T14:07:47.072Z,16.12
2022-11-07T14:10:15.514Z,16.00
2022-11-07T14:12:43.397Z,15.90
2022-11-07T14:15:11.744Z,15.83
2022-11-07T14:17:39.929Z,15.75
2022-11-07T14:20:07.996Z,15.69
2022-11-07T14:22:36.334Z,15.64
2022-11-07T14:25:04.527Z,15.60
2022-11-07T14:27:34.261Z,15.54
2022-11-07T14:30:01.999Z,15.50
2022-11-07T14:32:32.093Z,15.45
2022-11-07T14:35:00.741Z,15.41
2022-11-07T14:37:28.668Z,15.37
2022-11-07T14:39:56.682Z,15.35
2022-11-07T14:42:24.548Z,15.30
2022-11-07T14:44:54.885Z,15.27
2022-11-07T14:47:23.523Z,15.24
2022-11-07T14:49:51.378Z,15.20
2022-11-07T14:52:19.263Z,15.18
2022-11-07T14:54:47.259Z,15.16
2022-11-07T14:57:15.110Z,15.15
2022-11-07T14:59:44.305Z,15.14
2022-11-07T15:02:12.249Z,15.11
2022-11-07T15:04:43.161Z,15.10
2022-11-07T15:07:10.953Z,15.10
2022-11-07T15:09:40.976Z,15.09
2022-11-07T15:12:08.846Z,15.07
2022-11-07T15:14:36.626Z,15.05
2022-11-07T15:17:05.604Z,15.03
2022-11-07T15:19:33.504Z,14.99
2022-11-07T15:22:01.767Z,14.95
2022-11-07T15:24:30.449Z,14.91
2022-11-07T15:26:58.206Z,14.84
2022-11-07T15:29:26.158Z,14.80
2022-11-07T15:31:54.080Z,14.77
2022-11-07T15:34:39.249Z,14.74
2022-11-07T15:37:10.734Z,14.69
2022-11-07T15:39:38.657Z,14.66
2022-11-07T15:42:06.473Z,14.62
2022-11-07T15:44:36.013Z,14.60
2022-11-07T15:47:03.969Z,14.56
2022-11-07T15:49:32.603Z,14.53
2022-11-07T15:52:00.607Z,14.48
2022-11-07T15:54:28.516Z,14.46
2022-11-07T15:56:58.473Z,14.46
2022-11-07T15:59:26.653Z,14.45
2022-11-07T16:01:54.622Z,14.48
2022-11-07T16:04:23.037Z,14.47
2022-11-07T16:06:50.911Z,14.47
2022-11-07T16:09:19.020Z,14.48
2022-11-07T16:11:46.722Z,14.47
2022-11-07T16:14:42.395Z,14.48
2022-11-07T16:17:04.006Z,14.44
2022-11-07T16:19:31.788Z,14.41
2022-11-07T16:21:59.778Z,14.37
2022-11-07T16:24:29.110Z,14.36
2022-11-07T16:26:57.122Z,14.36
2022-11-07T16:29:28.199Z,14.36
2022-11-07T16:31:56.822Z,14.38
2022-11-07T16:34:24.775Z,14.41
2022-11-07T16:36:52.700Z,14.44
2022-11-07T16:39:21.097Z,14.44
2022-11-07T16:41:50.846Z,14.46
2022-11-07T16:44:24.761Z,14.46
2022-11-07T16:46:55.040Z,14.46
2022-11-07T16:49:22.946Z,14.48
2022-11-07T16:51:52.129Z,14.50
2022-11-07T16:54:19.964Z,14.50
2022-11-07T16:56:51.420Z,14.51
2022-11-07T16:59:19.707Z,14.51
2022-11-07T17:01:47.830Z,14.51
2022-11-07T17:04:16.659Z,14.53
2022-11-07T17:06:47.741Z,14.55
2022-11-07T17:09:16.922Z,14.56
2022-11-07T17:11:44.853Z,14.56
2022-11-07T17:14:12.822Z,14.56
2022-11-07T17:16:40.734Z,14.55
2022-11-07T17:19:08.670Z,14.57
2022-11-07T17:21:37.101Z,14.59
2022-11-07T17:24:05.757Z,14.60
2022-11-07T17:26:34.823Z,14.61
2022-11-07T17:29:07.343Z,14.60
2022-11-07T17:31:35.193Z,14.61
2022-11-07T17:34:02.976Z,14.61
2022-11-07T17:36:36.768Z,14.62
2022-11-07T17:39:05.286Z,14.60
2022-11-07T17:41:33.222Z,14.59
2022-11-07T17:44:01.148Z,14.59
2022-11-07T17:46:28.962Z,14.59
2022-11-07T17:48:57.258Z,14.60
2022-11-07T17:51:26.920Z,14.60
2022-11-07T17:53:54.845Z,14.60
2022-11-07T17:56:22.838Z,14.61
2022-11-07T17:58:50.723Z,14.60
2022-11-07T18:01:21.599Z,14.61
2022-11-07T18:03:49.709Z,14.62
2022-11-07T18:06:17.601Z,14.62
2022-11-07T18:08:52.047Z,14.63
2022-11-07T18:11:20.685Z,14.62
2022-11-07T18:13:48.951Z,14.62
2022-11-07T18:16:17.679Z,14.64
2022-11-07T18:18:45.702Z,14.67
2022-11-07T18:21:13.600Z,14.68
2022-11-07T18:23:41.586Z,14.67
2022-11-07T18:26:09.639Z,14.65
2022-11-07T18:28:37.497Z,14.67
2022-11-07T18:31:05.800Z,14.65
2022-11-07T18:33:33.675Z,14.64
2022-11-07T18:36:01.589Z,14.63
2022-11-07T18:38:29.802Z,14.62
2022-11-07T18:40:59.585Z,14.61
2022-11-07T18:43:27.452Z,14.60
2022-11-07T18:45:55.328Z,14.61
2022-11-07T18:48:23.250Z,14.59
2022-11-07T18:50:51.524Z,14.59
2022-11-07T18:53:24.605Z,14.59
2022-11-07T18:55:52.486Z,14.60
2022-11-07T18:58:20.471Z,14.59
2022-11-07T19:00:48.801Z,14.60
2022-11-07T19:03:17.391Z,14.59
2022-11-07T19:05:45.566Z,14.60
2022-11-07T19:08:13.562Z,14.62
2022-11-07T19:10:41.600Z,14.63
2022-11-07T19:13:09.516Z,14.62
2022-11-07T19:15:38.374Z,14.63
2022-11-07T19:18:09.561Z,14.63
2022-11-07T19:20:37.510Z,14.64
2022-11-07T19:26:16.279Z,14.65
2022-11-07T19:28:44.197Z,14.64
2022-11-07T19:31:24.455Z,14.66
2022-11-07T19:33:52.591Z,14.67
2022-11-07T19:36:22.276Z,14.66
2022-11-07T19:38:50.341Z,14.65
2022-11-07T19:41:18.168Z,14.68
2022-11-07T19:43:48.738Z,14.68
2022-11-07T19:46:16.671Z,14.68
2022-11-07T19:48:44.774Z,14.69
2022-11-07T19:51:20.998Z,14.69
2022-11-07T19:53:49.177Z,14.69
2022-11-07T19:56:17.209Z,14.70
2022-11-07T19:58:45.777Z,14.71
2022-11-07T20:01:15.126Z,14.71
2022-11-07T20:03:42.979Z,14.72
2022-11-07T20:06:10.925Z,14.71
2022-11-07T20:08:38.893Z,14.71
2022-11-07T20:11:07.107Z,14.70
2022-11-07T20:13:35.882Z,14.70
2022-11-07T20:16:03.837Z,14.72
2022-11-07T20:18:32.182Z,14.73
2022-11-07T20:21:00.072Z,14.73
2022-11-07T20:23:28.364Z,14.73
2022-11-07T20:25:56.280Z,14.74
2022-11-07T20:28:24.055Z,14.74
2022-11-07T20:30:54.752Z,14.73
2022-11-07T20:33:22.508Z,14.74
2022-11-07T20:35:50.675Z,14.75
2022-11-07T20:38:20.178Z,14.74
2022-11-07T20:40:48.097Z,14.71
2022-11-07T20:43:16.603Z,14.69
2022-11-07T20:45:44.848Z,14.68
2022-11-07T20:48:13.174Z,14.69
2022-11-07T20:50:41.976Z,14.70
2022-11-07T20:53:09.926Z,14.69
2022-11-07T20:55:37.818Z,14.66
2022-11-07T20:58:05.686Z,14.62
2022-11-07T21:00:34.145Z,14.56
2022-11-07T21:03:02.853Z,14.48
2022-11-07T21:05:30.707Z,14.40
2022-11-07T21:07:58.676Z,14.37
2022-11-07T21:10:26.476Z,14.33
2022-11-07T21:12:54.376Z,14.31
2022-11-07T21:15:22.841Z,14.26
2022-11-07T21:17:50.640Z,14.21
2022-11-07T21:20:18.692Z,14.21
2022-11-07T21:22:47.140Z,14.18
2022-11-07T21:25:17.416Z,14.12
2022-11-07T21:27:48.189Z,14.07
2022-11-07T21:30:17.137Z,14.03
2022-11-07T21:32:45.070Z,14.01
2022-11-07T21:35:13.523Z,13.99
2022-11-07T21:37:41.657Z,13.97
2022-11-07T21:40:10.973Z,13.94
2022-11-07T21:42:39.063Z,13.90
2022-11-07T21:45:07.232Z,13.87
2022-11-07T21:47:35.040Z,13.82
2022-11-07T21:50:23.941Z,13.80
2022-11-07T21:52:52.090Z,13.80
2022-11-07T21:55:19.963Z,13.80
2022-11-07T21:57:47.715Z,13.78
2022-11-07T22:00:15.706Z,13.74
2022-11-07T22:02:57.747Z,13.69
2022-11-07T22:05:25.884Z,13.66
2022-11-07T22:07:53.775Z,13.64
2022-11-07T22:10:22.033Z,13.60
2022-11-07T22:12:50.874Z,13.60
2022-11-07T22:15:18.585Z,13.58
2022-11-07T22:17:46.274Z,13.57
2022-11-07T22:20:13.919Z,13.53
2022-11-07T22:22:42.230Z,13.52
2022-11-07T22:25:09.908Z,13.51
2022-11-07T22:27:38.594Z,13.53
2022-11-07T22:30:09.227Z,13.53
2022-11-07T22:32:36.997Z,13.51
2022-11-07T22:35:08.943Z,13.49
2022-11-07T22:37:37.098Z,13.47
2022-11-07T22:40:04.836Z,13.44
2022-11-07T22:42:34.260Z,13.40
2022-11-07T22:45:02.000Z,13.37
2022-11-07T22:47:30.120Z,13.35
2022-11-07T22:49:58.312Z,13.32
2022-11-07T22:52:26.044Z,13.29
2022-11-07T22:54:53.779Z,13.25
2022-11-07T22:57:21.480Z,13.21
2022-11-07T22:59:49.384Z,13.20
2022-11-07T23:02:17.089Z,13.19
2022-11-07T23:04:44.799Z,13.19
2022-11-07T23:07:12.583Z,13.18
2022-11-07T23:09:40.238Z,13.18
2022-11-07T23:12:08.221Z,13.13
2022-11-07T23:14:36.016Z,13.11
2022-11-07T23:17:03.793Z,13.09
2022-11-07T23:19:31.973Z,13.08
2022-11-07T23:21:59.689Z,13.08
2022-11-07T23:24:27.913Z,13.06
2022-11-07T23:26:55.574Z,13.05
2022-11-07T23:29:23.248Z,13.04
2022-11-07T23:31:51.507Z,13.04
2022-11-07T23:34:19.570Z,13.02
2022-11-07T23:36:47.604Z,13.01
2022-11-07T23:39:15.775Z,13.00
2022-11-07T23:41:43.430Z,13.00
2022-11-07T23:44:13.435Z,13.01
2022-11-07T23:46:58.957Z,12.99
2022-11-07T23:49:52.318Z,12.98
2022-11-07T23:52:19.955Z,12.99
2022-11-07T23:55:05.392Z,12.98
2022-11-07T23:57:35.021Z,12.94
